Time;durP1;ratioP1;P1;durP2;ratioP2;P2;SDS_P1;SDS_P2;PMS_P1;PMS_P2;Temp;Humidity;BMP_temperature;BMP_pressure;BME280_temperature;BME280_humidity;BME280_pressure;Samples;Min_cycle;Max_cycle;Signal;HPM_P1;HPM_P2
2023/07/19 00:01:30;;;;;;;3.60;3.33;;;;;;;;;;4898916;29;20472;-85
2023/07/19 00:03:57;;;;;;;3.50;3.40;;;;;;;;;;4897461;29;20449;-85
2023/07/19 00:06:23;;;;;;;3.50;3.40;;;;;;;;;;4886532;29;20443;-86
2023/07/19 00:08:49;;;;;;;3.70;3.50;;;;;;;;;;4892513;29;20440;-85
2023/07/19 00:11:15;;;;;;;3.17;3.13;;;;;;;;;;4887442;29;20487;-86
2023/07/19 00:13:41;;;;;;;3.37;3.17;;;;;;;;;;4893709;29;20519;-86
2023/07/19 00:16:07;;;;;;;3.50;3.40;;;;;;;;;;4901223;29;20448;-86
2023/07/19 00:18:33;;;;;;;3.37;3.23;;;;;;;;;;4901713;29;20537;-85
2023/07/19 00:20:59;;;;;;;3.13;2.93;;;;;;;;;;4888777;29;20536;-86
2023/07/19 00:23:26;;;;;;;3.17;3.07;;;;;;;;;;4894285;29;20468;-85
2023/07/19 00:25:52;;;;;;;2.80;2.80;;;;;;;;;;4890330;29;20535;-86
2023/07/19 00:28:17;;;;;;;3.07;2.97;;;;;;;;;;4890788;29;20492;-86
2023/07/19 00:30:43;;;;;;;2.70;2.70;;;;;;;;;;4888731;29;20562;-86
2023/07/19 00:33:09;;;;;;;3.50;2.70;;;;;;;;;;4889721;29;20629;-86
2023/07/19 00:35:40;;;;;;;3.43;3.30;;;;;;;;;;4885934;29;20446;-86
2023/07/19 00:38:06;;;;;;;2.83;2.83;;;;;;;;;;4889732;29;20988;-85
2023/07/19 00:40:33;;;;;;;3.17;3.07;;;;;;;;;;4889857;29;20457;-86
2023/07/19 00:42:59;;;;;;;3.37;3.27;;;;;;;;;;4891065;29;20430;-86
2023/07/19 00:45:26;;;;;;;3.20;3.03;;;;;;;;;;4883499;29;20482;-85
2023/07/19 00:47:54;;;;;;;2.80;2.60;;;;;;;;;;4892894;29;20542;-85
2023/07/19 00:50:21;;;;;;;2.70;2.60;;;;;;;;;;4892497;29;21207;-84
2023/07/19 00:52:47;;;;;;;3.30;3.10;;;;;;;;;;4895899;29;20491;-83
2023/07/19 00:55:13;;;;;;;2.53;2.43;;;;;;;;;;4891351;29;20445;-84
2023/07/19 00:57:39;;;;;;;3.77;3.57;;;;;;;;;;4895166;29;20437;-84
2023/07/19 01:00:06;;;;;;;6.20;3.60;;;;;;;;;;4892817;29;20457;-85
2023/07/19 01:02:33;;;;;;;2.90;2.80;;;;;;;;;;4881260;29;20545;-85
2023/07/19 01:04:59;;;;;;;2.60;2.60;;;;;;;;;;4891116;29;20828;-85
2023/07/19 01:07:25;;;;;;;3.47;3.27;;;;;;;;;;4900572;29;20480;-85
2023/07/19 01:09:51;;;;;;;3.40;3.30;;;;;;;;;;4892070;29;20520;-85
2023/07/19 01:12:18;;;;;;;3.03;2.83;;;;;;;;;;4898913;29;20532;-84
2023/07/19 01:14:43;;;;;;;2.40;2.40;;;;;;;;;;4887015;29;20531;-84
2023/07/19 01:17:09;;;;;;;2.83;2.63;;;;;;;;;;4902743;29;20508;-84
2023/07/19 01:19:35;;;;;;;3.57;3.40;;;;;;;;;;4885105;29;20478;-85
2023/07/19 01:22:01;;;;;;;3.20;2.93;;;;;;;;;;4907584;29;20797;-85
2023/07/19 01:24:28;;;;;;;3.00;2.93;;;;;;;;;;4891708;29;20473;-84
2023/07/19 01:26:55;;;;;;;2.87;2.77;;;;;;;;;;4893987;29;21128;-85
2023/07/19 01:29:21;;;;;;;3.17;3.13;;;;;;;;;;4896944;29;20420;-83
2023/07/19 01:31:47;;;;;;;3.40;3.20;;;;;;;;;;4913696;29;20786;-82
2023/07/19 01:34:13;;;;;;;3.40;3.20;;;;;;;;;;4910921;29;20438;-84
2023/07/19 01:36:39;;;;;;;2.80;2.80;;;;;;;;;;4910734;29;20430;-86
2023/07/19 01:39:05;;;;;;;2.77;2.77;;;;;;;;;;4912544;29;20460;-85
2023/07/19 01:41:31;;;;;;;2.80;2.70;;;;;;;;;;4891261;29;20465;-84
2023/07/19 01:43:57;;;;;;;3.03;2.93;;;;;;;;;;4885308;29;20473;-85
2023/07/19 01:46:23;;;;;;;2.93;2.83;;;;;;;;;;4888132;29;21157;-84
2023/07/19 01:48:49;;;;;;;3.47;3.17;;;;;;;;;;4896590;29;20485;-85
2023/07/19 01:51:15;;;;;;;3.40;3.10;;;;;;;;;;4883797;29;20524;-85
2023/07/19 01:53:41;;;;;;;3.10;2.90;;;;;;;;;;4888340;29;20435;-84
2023/07/19 01:56:07;;;;;;;2.70;2.70;;;;;;;;;;4888283;29;20461;-84
2023/07/19 01:58:33;;;;;;;3.30;3.20;;;;;;;;;;4890983;29;20459;-85
2023/07/19 02:00:59;;;;;;;3.80;3.70;;;;;;;;;;4885862;29;20449;-85
2023/07/19 02:03:25;;;;;;;3.60;3.40;;;;;;;;;;4885554;29;20592;-85
2023/07/19 02:05:57;;;;;;;3.30;3.20;;;;;;;;;;4884768;29;20461;-85
2023/07/19 02:08:23;;;;;;;3.20;3.10;;;;;;;;;;4893707;29;20523;-85
2023/07/19 02:10:49;;;;;;;3.47;3.37;;;;;;;;;;4885984;29;20473;-85
2023/07/19 02:13:15;;;;;;;3.67;3.53;;;;;;;;;;4896034;29;20440;-85
2023/07/19 02:15:41;;;;;;;2.53;2.53;;;;;;;;;;4896583;29;20448;-87
2023/07/19 02:18:07;;;;;;;3.63;3.43;;;;;;;;;;4896218;29;21080;-85
2023/07/19 02:20:33;;;;;;;3.47;3.17;;;;;;;;;;4895298;29;20497;-85
2023/07/19 02:22:59;;;;;;;4.43;4.07;;;;;;;;;;4877844;29;20484;-85
2023/07/19 02:25:25;;;;;;;3.20;3.20;;;;;;;;;;4895815;29;20511;-85
2023/07/19 02:27:51;;;;;;;3.67;3.50;;;;;;;;;;4897265;29;20532;-85
2023/07/19 02:30:17;;;;;;;3.00;2.90;;;;;;;;;;4889270;29;20578;-85
2023/07/19 02:32:43;;;;;;;3.97;3.77;;;;;;;;;;4887771;29;20480;-85
2023/07/19 02:35:09;;;;;;;3.83;3.53;;;;;;;;;;4891916;29;20549;-84
2023/07/19 02:37:35;;;;;;;4.00;3.80;;;;;;;;;;4898619;29;20441;-85
2023/07/19 02:40:01;;;;;;;2.93;2.70;;;;;;;;;;4889437;29;20442;-85
2023/07/19 02:42:27;;;;;;;2.97;2.83;;;;;;;;;;4889633;29;20461;-85
2023/07/19 02:44:53;;;;;;;3.70;3.60;;;;;;;;;;4890156;29;21212;-85
2023/07/19 02:47:19;;;;;;;2.83;2.80;;;;;;;;;;4895066;29;20443;-85
2023/07/19 02:49:45;;;;;;;3.80;3.50;;;;;;;;;;4894584;29;20463;-86
2023/07/19 02:52:11;;;;;;;3.37;3.07;;;;;;;;;;4898693;29;21067;-86
2023/07/19 02:54:37;;;;;;;2.30;2.30;;;;;;;;;;4891532;29;20949;-86
2023/07/19 02:57:03;;;;;;;3.70;3.50;;;;;;;;;;4888117;29;20451;-85
2023/07/19 02:59:29;;;;;;;3.23;3.10;;;;;;;;;;4881717;29;20524;-86
2023/07/19 03:01:55;;;;;;;3.87;3.67;;;;;;;;;;4888007;29;20441;-85
2023/07/19 03:04:21;;;;;;;4.63;2.83;;;;;;;;;;4894475;29;20509;-84
2023/07/19 03:06:48;;;;;;;2.50;2.50;;;;;;;;;;4885076;29;20438;-85
2023/07/19 03:09:15;;;;;;;3.17;3.03;;;;;;;;;;4893887;29;20445;-85
2023/07/19 03:11:41;;;;;;;3.43;3.30;;;;;;;;;;4893179;29;20469;-85
2023/07/19 03:14:07;;;;;;;3.63;3.33;;;;;;;;;;4889864;29;20521;-86
2023/07/19 03:16:33;;;;;;;4.13;3.93;;;;;;;;;;4888574;29;20865;-85
2023/07/19 03:18:59;;;;;;;4.67;4.27;;;;;;;;;;4879916;29;20466;-84
2023/07/19 03:21:25;;;;;;;4.00;3.90;;;;;;;;;;4896834;29;20447;-85
2023/07/19 03:23:51;;;;;;;3.73;3.47;;;;;;;;;;4882097;29;20472;-85
2023/07/19 03:26:17;;;;;;;4.17;3.10;;;;;;;;;;4889372;29;20453;-85
2023/07/19 03:28:45;;;;;;;4.63;4.43;;;;;;;;;;4881269;29;20461;-84
2023/07/19 03:31:11;;;;;;;3.30;3.20;;;;;;;;;;4884931;29;20464;-85
2023/07/19 03:33:39;;;;;;;3.57;3.50;;;;;;;;;;4889601;29;20437;-85
2023/07/19 03:36:05;;;;;;;4.00;3.83;;;;;;;;;;4886959;29;20541;-84
2023/07/19 03:38:31;;;;;;;3.93;3.60;;;;;;;;;;4908474;29;20438;-84
2023/07/19 03:41:07;;;;;;;5.70;3.87;;;;;;;;;;4902349;29;20487;-85
2023/07/19 03:43:33;;;;;;;3.53;3.43;;;;;;;;;;4893927;29;20499;-84
2023/07/19 03:45:59;;;;;;;3.33;3.33;;;;;;;;;;4873516;29;20452;-86
2023/07/19 03:48:25;;;;;;;4.97;3.70;;;;;;;;;;4900257;29;20441;-86
2023/07/19 03:51:01;;;;;;;3.67;3.43;;;;;;;;;;4892641;29;20829;-84
2023/07/19 03:53:27;;;;;;;3.07;2.97;;;;;;;;;;4896421;29;20473;-85
2023/07/19 03:55:54;;;;;;;3.70;3.50;;;;;;;;;;4887896;29;20588;-84
2023/07/19 03:58:20;;;;;;;3.90;3.60;;;;;;;;;;4892672;29;20991;-85
2023/07/19 04:00:46;;;;;;;4.03;3.73;;;;;;;;;;4899726;29;20986;-85
2023/07/19 04:03:12;;;;;;;3.67;3.43;;;;;;;;;;4894411;29;20445;-86
2023/07/19 04:05:38;;;;;;;3.30;3.10;;;;;;;;;;4894600;29;20547;-84
2023/07/19 04:08:04;;;;;;;4.17;3.77;;;;;;;;;;4894101;29;20477;-85
2023/07/19 04:10:30;;;;;;;4.10;3.70;;;;;;;;;;4887140;29;20453;-84
2023/07/19 04:12:56;;;;;;;3.73;3.53;;;;;;;;;;4897520;29;20436;-85
2023/07/19 04:15:22;;;;;;;3.53;3.33;;;;;;;;;;4902740;29;20453;-85
2023/07/19 04:17:48;;;;;;;3.40;3.10;;;;;;;;;;4899413;29;20449;-85
2023/07/19 04:20:14;;;;;;;7.23;3.60;;;;;;;;;;4898159;29;20540;-86
2023/07/19 04:22:40;;;;;;;3.87;3.67;;;;;;;;;;4889138;29;20448;-85
2023/07/19 04:25:06;;;;;;;3.40;3.40;;;;;;;;;;4892457;29;20474;-86
2023/07/19 04:27:33;;;;;;;5.10;3.80;;;;;;;;;;4896493;29;20436;-85
2023/07/19 04:29:58;;;;;;;3.63;3.53;;;;;;;;;;4880431;29;20480;-85
2023/07/19 04:32:25;;;;;;;6.30;4.10;;;;;;;;;;4902716;29;20461;-84
2023/07/19 04:34:53;;;;;;;4.43;4.07;;;;;;;;;;4901147;29;20472;-85
2023/07/19 04:37:19;;;;;;;4.07;3.63;;;;;;;;;;4898104;29;20587;-85
2023/07/19 04:55:05;;;;;;;3.87;3.77;;;;;;;;;;4889718;29;20440;-84
2023/07/19 05:22:06;;;;;;;4.23;4.03;;;;;;;;;;4888155;29;21452;-85
2023/07/19 05:24:32;;;;;;;4.30;3.83;;;;;;;;;;4884374;29;20486;-85
2023/07/19 05:26:58;;;;;;;4.57;4.07;;;;;;;;;;4888553;29;20442;-85
2023/07/19 05:29:24;;;;;;;4.37;4.07;;;;;;;;;;4894151;29;20527;-83
2023/07/19 05:31:50;;;;;;;4.07;3.80;;;;;;;;;;4890634;29;21002;-85
2023/07/19 05:34:16;;;;;;;4.50;4.30;;;;;;;;;;4873321;29;20935;-86
2023/07/19 05:36:42;;;;;;;13.10;4.90;;;;;;;;;;4870950;29;20513;-85
2023/07/19 05:39:09;;;;;;;4.47;4.13;;;;;;;;;;4892105;29;21204;-85
2023/07/19 05:51:23;;;;;;;3.97;3.70;;;;;;;;;;4893838;29;20496;-85
2023/07/19 06:12:12;;;;;;;4.77;4.33;;;;;;;;;;4904733;29;20525;-85
2023/07/19 06:17:42;;;;;;;5.37;4.93;;;;;;;;;;4903890;29;20408;-87
2023/07/19 06:20:10;;;;;;;5.50;4.67;;;;;;;;;;4900294;29;20460;-87
2023/07/19 06:22:36;;;;;;;5.13;4.70;;;;;;;;;;4894792;29;20460;-75
2023/07/19 06:25:02;;;;;;;4.87;4.60;;;;;;;;;;4892602;29;20449;-85
2023/07/19 06:27:28;;;;;;;5.47;4.97;;;;;;;;;;4902011;29;20440;-84
2023/07/19 06:29:54;;;;;;;4.77;4.50;;;;;;;;;;4898314;29;21158;-85
2023/07/19 06:32:20;;;;;;;4.50;4.20;;;;;;;;;;4903641;29;20469;-83
2023/07/19 06:34:46;;;;;;;4.60;4.30;;;;;;;;;;4895585;29;20453;-85
2023/07/19 06:37:12;;;;;;;5.70;4.43;;;;;;;;;;4894787;29;20442;-85
2023/07/19 06:39:41;;;;;;;6.50;5.80;;;;;;;;;;4895433;29;20449;-81
2023/07/19 06:42:08;;;;;;;5.20;4.80;;;;;;;;;;4901820;29;20478;-84
2023/07/19 06:44:35;;;;;;;6.33;5.10;;;;;;;;;;4896179;29;20449;-86
2023/07/19 06:47:03;;;;;;;5.60;4.90;;;;;;;;;;4903299;29;20441;-86
2023/07/19 06:49:29;;;;;;;7.87;5.80;;;;;;;;;;4896388;29;20460;-84
2023/07/19 06:51:55;;;;;;;6.27;5.70;;;;;;;;;;4874383;29;20486;-84
2023/07/19 06:54:21;;;;;;;5.33;4.97;;;;;;;;;;4900829;29;20483;-83
2023/07/19 06:56:47;;;;;;;5.37;4.87;;;;;;;;;;4896042;29;20445;-84
2023/07/19 06:59:13;;;;;;;6.60;5.20;;;;;;;;;;4895393;29;20478;-83
2023/07/19 07:01:39;;;;;;;5.40;5.10;;;;;;;;;;4874910;29;20527;-85
2023/07/19 07:04:09;;;;;;;4.90;4.53;;;;;;;;;;4883314;29;20455;-85
2023/07/19 07:06:35;;;;;;;5.30;4.63;;;;;;;;;;4872569;29;20467;-83
2023/07/19 07:09:02;;;;;;;5.67;5.30;;;;;;;;;;4893220;29;21010;-82
2023/07/19 07:11:28;;;;;;;5.90;5.10;;;;;;;;;;4899602;29;20567;-84
2023/07/19 07:13:54;;;;;;;6.17;4.90;;;;;;;;;;4889597;29;20475;-86
2023/07/19 07:16:20;;;;;;;5.43;5.27;;;;;;;;;;4905664;29;20448;-81
2023/07/19 07:18:46;;;;;;;7.87;7.27;;;;;;;;;;4879414;29;21075;-84
2023/07/19 07:21:12;;;;;;;6.73;5.57;;;;;;;;;;4896234;29;20505;-84
2023/07/19 07:23:38;;;;;;;7.17;5.27;;;;;;;;;;4897210;29;20504;-85
2023/07/19 07:26:05;;;;;;;5.57;5.17;;;;;;;;;;4891174;29;20496;-83
2023/07/19 07:28:31;;;;;;;7.07;6.10;;;;;;;;;;4899760;29;20469;-84
2023/07/19 07:31:05;;;;;;;5.60;5.30;;;;;;;;;;4890360;29;21052;-82
2023/07/19 07:33:31;;;;;;;6.37;5.40;;;;;;;;;;4897030;29;20445;-83
2023/07/19 07:35:57;;;;;;;7.27;6.63;;;;;;;;;;4887969;29;20456;-85
2023/07/19 07:38:24;;;;;;;7.30;5.50;;;;;;;;;;4901411;29;20447;-85
2023/07/19 07:40:49;;;;;;;6.63;5.97;;;;;;;;;;4892708;29;20457;-86
2023/07/19 07:43:19;;;;;;;6.10;5.57;;;;;;;;;;4896288;29;20434;-86
2023/07/19 07:45:44;;;;;;;5.60;5.30;;;;;;;;;;4896246;29;20784;-85
2023/07/19 07:48:11;;;;;;;8.63;5.47;;;;;;;;;;4900628;29;20441;-85
2023/07/19 07:50:37;;;;;;;6.87;5.97;;;;;;;;;;4873333;29;20437;-85
2023/07/19 07:53:03;;;;;;;7.67;5.00;;;;;;;;;;4894138;29;20570;-86
2023/07/19 07:55:29;;;;;;;6.20;5.80;;;;;;;;;;4898724;29;20446;-82
2023/07/19 07:57:55;;;;;;;6.00;5.50;;;;;;;;;;4907147;29;20445;-82
2023/07/19 08:00:21;;;;;;;6.00;5.07;;;;;;;;;;4910902;29;20449;-84
2023/07/19 08:02:47;;;;;;;5.67;5.17;;;;;;;;;;4899305;29;20445;-84
2023/07/19 08:05:13;;;;;;;5.53;5.20;;;;;;;;;;4892281;29;20453;-84
2023/07/19 08:07:39;;;;;;;9.10;5.10;;;;;;;;;;4907336;29;20941;-84
2023/07/19 08:10:09;;;;;;;6.97;5.10;;;;;;;;;;4899894;29;20461;-86
2023/07/19 08:12:35;;;;;;;5.10;4.80;;;;;;;;;;4902585;29;20526;-84
2023/07/19 08:15:01;;;;;;;5.27;4.80;;;;;;;;;;4896041;29;20453;-85
2023/07/19 08:17:27;;;;;;;6.30;5.37;;;;;;;;;;4898294;29;20452;-86
2023/07/19 08:19:53;;;;;;;5.43;5.03;;;;;;;;;;4890323;29;20445;-85
2023/07/19 08:22:26;;;;;;;5.50;5.20;;;;;;;;;;4896150;29;20505;-83
2023/07/19 08:24:52;;;;;;;4.53;4.23;;;;;;;;;;4896897;29;20444;-86
2023/07/19 08:27:18;;;;;;;4.70;4.40;;;;;;;;;;4909937;29;20460;-85
2023/07/19 08:29:44;;;;;;;5.47;4.73;;;;;;;;;;4931135;29;20578;-85
2023/07/19 08:32:11;;;;;;;6.13;5.53;;;;;;;;;;4916761;29;20467;-85
2023/07/19 08:34:37;;;;;;;7.53;5.10;;;;;;;;;;4897423;29;21070;-83
2023/07/19 08:37:03;;;;;;;6.50;4.90;;;;;;;;;;4920379;29;20461;-85
2023/07/19 08:39:29;;;;;;;4.83;4.53;;;;;;;;;;4917982;29;20905;-82
2023/07/19 08:41:55;;;;;;;5.37;4.97;;;;;;;;;;4922042;29;20444;-85
2023/07/19 08:44:23;;;;;;;5.60;5.10;;;;;;;;;;4915275;29;20448;-85
2023/07/19 08:46:50;;;;;;;9.53;4.40;;;;;;;;;;4913267;29;20449;-83
2023/07/19 08:49:18;;;;;;;5.50;5.10;;;;;;;;;;4914213;29;20473;-85
2023/07/19 08:51:48;;;;;;;6.00;5.33;;;;;;;;;;4913641;29;20504;-83
2023/07/19 08:54:14;;;;;;;5.70;5.20;;;;;;;;;;4908143;29;20448;-84
2023/07/19 08:56:41;;;;;;;5.83;5.50;;;;;;;;;;4914007;29;20492;-84
2023/07/19 08:59:07;;;;;;;6.13;5.70;;;;;;;;;;4898676;29;20489;-84
2023/07/19 09:01:34;;;;;;;6.67;6.00;;;;;;;;;;4927392;29;20443;-84
2023/07/19 09:04:00;;;;;;;6.43;5.90;;;;;;;;;;4919295;29;20443;-87
2023/07/19 09:06:29;;;;;;;5.90;5.60;;;;;;;;;;4926076;29;20432;-88
2023/07/19 09:08:56;;;;;;;5.97;5.53;;;;;;;;;;4902103;29;20553;-85
2023/07/19 09:11:25;;;;;;;4.70;4.50;;;;;;;;;;4933333;29;20519;-85
2023/07/19 09:13:55;;;;;;;5.97;5.47;;;;;;;;;;4934596;29;20436;-85
2023/07/19 09:16:28;;;;;;;6.10;5.60;;;;;;;;;;4911478;29;20938;-84
2023/07/19 09:18:54;;;;;;;6.40;5.80;;;;;;;;;;4930081;29;20437;-87
2023/07/19 09:21:34;;;;;;;7.07;6.23;;;;;;;;;;4922545;29;20491;-85
2023/07/19 09:24:03;;;;;;;9.93;6.63;;;;;;;;;;4915753;29;20542;-85
2023/07/19 09:26:48;;;;;;;6.63;5.80;;;;;;;;;;4923004;29;21225;-85
2023/07/19 09:29:14;;;;;;;5.80;5.37;;;;;;;;;;4911563;29;20421;-85
2023/07/19 09:31:53;;;;;;;8.80;7.27;;;;;;;;;;4919713;29;20472;-84
2023/07/19 09:34:20;;;;;;;7.37;6.33;;;;;;;;;;4905257;29;20535;-84
2023/07/19 09:36:46;;;;;;;6.47;6.07;;;;;;;;;;4916545;29;20467;-85
2023/07/19 09:39:16;;;;;;;8.43;7.73;;;;;;;;;;4918401;29;20464;-85
2023/07/19 09:41:43;;;;;;;8.43;6.77;;;;;;;;;;4917189;29;20470;-84
2023/07/19 09:44:11;;;;;;;14.57;7.90;;;;;;;;;;4919335;29;20443;-83
2023/07/19 09:46:37;;;;;;;9.60;7.10;;;;;;;;;;4926160;29;20450;-82
2023/07/19 09:49:03;;;;;;;8.17;6.90;;;;;;;;;;4901895;29;20440;-84
2023/07/19 09:51:31;;;;;;;6.30;5.80;;;;;;;;;;4917021;29;20933;-84
2023/07/19 09:54:00;;;;;;;8.90;7.70;;;;;;;;;;4895147;29;20536;-86
2023/07/19 09:56:26;;;;;;;7.53;6.83;;;;;;;;;;4916870;29;20979;-84
2023/07/19 09:58:52;;;;;;;6.97;6.53;;;;;;;;;;4916582;29;20458;-84
2023/07/19 10:01:18;;;;;;;7.33;6.83;;;;;;;;;;4908092;29;20471;-84
2023/07/19 10:03:44;;;;;;;7.63;7.20;;;;;;;;;;4897217;29;20436;-84
2023/07/19 10:06:10;;;;;;;8.67;6.80;;;;;;;;;;4899326;29;20436;-82
2023/07/19 10:08:36;;;;;;;9.60;6.83;;;;;;;;;;4919769;29;20502;-83
2023/07/19 10:11:03;;;;;;;9.27;6.70;;;;;;;;;;4917552;29;20454;-84
2023/07/19 10:13:32;;;;;;;9.53;6.37;;;;;;;;;;4895334;29;20432;-83
2023/07/19 10:15:58;;;;;;;6.83;6.27;;;;;;;;;;4909235;29;20468;-86
2023/07/19 10:18:25;;;;;;;7.87;7.20;;;;;;;;;;4908928;29;20428;-85
2023/07/19 10:21:01;;;;;;;9.10;7.70;;;;;;;;;;4915698;29;20461;-85
2023/07/19 10:23:30;;;;;;;8.50;7.60;;;;;;;;;;4908818;29;20479;-84
2023/07/19 10:25:57;;;;;;;7.57;6.87;;;;;;;;;;4912077;29;20456;-85
2023/07/19 10:28:29;;;;;;;7.77;7.17;;;;;;;;;;4924297;29;20424;-82
2023/07/19 10:30:56;;;;;;;7.93;7.20;;;;;;;;;;4914498;29;20475;-81
2023/07/19 10:33:34;;;;;;;7.20;6.80;;;;;;;;;;4901596;29;20933;-84
2023/07/19 10:36:07;;;;;;;6.10;5.83;;;;;;;;;;4912886;29;20695;-84
2023/07/19 10:38:33;;;;;;;6.20;5.90;;;;;;;;;;4895602;29;20488;-79
2023/07/19 10:40:59;;;;;;;6.13;5.80;;;;;;;;;;4887335;29;20538;-81
2023/07/19 10:43:29;;;;;;;9.27;5.63;;;;;;;;;;4911783;29;20526;-80
2023/07/19 10:45:56;;;;;;;6.13;5.73;;;;;;;;;;4900594;29;20451;-81
2023/07/19 10:48:29;;;;;;;6.37;5.80;;;;;;;;;;4905539;29;20454;-82
2023/07/19 10:51:03;;;;;;;6.30;5.90;;;;;;;;;;4907321;29;20508;-83
2023/07/19 10:53:29;;;;;;;6.63;6.03;;;;;;;;;;4920663;29;20454;-82
2023/07/19 10:55:56;;;;;;;6.57;5.97;;;;;;;;;;4904648;29;20559;-84
2023/07/19 10:58:22;;;;;;;6.20;5.57;;;;;;;;;;4921294;29;20605;-84
2023/07/19 11:00:48;;;;;;;6.83;6.33;;;;;;;;;;4914795;29;20500;-84
2023/07/19 11:03:15;;;;;;;6.00;5.50;;;;;;;;;;4926323;29;21130;-84
2023/07/19 11:05:47;;;;;;;5.40;5.10;;;;;;;;;;4920498;29;20442;-83
2023/07/19 11:08:44;;;;;;;4.90;4.53;;;;;;;;;;4902729;29;20461;-86
2023/07/19 11:11:15;;;;;;;4.40;4.30;;;;;;;;;;4909076;29;20496;-85
2023/07/19 11:13:41;;;;;;;4.73;4.53;;;;;;;;;;4914608;29;20561;-86
2023/07/19 11:16:07;;;;;;;5.30;4.57;;;;;;;;;;4920753;29;20448;-84
2023/07/19 11:18:36;;;;;;;5.50;4.47;;;;;;;;;;4923277;29;20458;-87
2023/07/19 11:21:03;;;;;;;3.80;3.50;;;;;;;;;;4902494;29;20443;-86
2023/07/19 11:23:30;;;;;;;5.30;4.37;;;;;;;;;;4920053;29;20462;-81
2023/07/19 11:26:12;;;;;;;4.07;3.30;;;;;;;;;;4917361;29;20456;-87
2023/07/19 11:28:47;;;;;;;3.60;3.50;;;;;;;;;;4916864;29;20500;-85
2023/07/19 11:31:28;;;;;;;3.33;3.33;;;;;;;;;;4918723;29;20468;-86
2023/07/19 11:34:11;;;;;;;5.13;3.43;;;;;;;;;;4923262;29;20479;-83
2023/07/19 11:36:41;;;;;;;3.87;3.67;;;;;;;;;;4922524;29;20485;-85
2023/07/19 11:39:14;;;;;;;3.33;3.13;;;;;;;;;;4908714;29;20441;-85
2023/07/19 11:41:42;;;;;;;3.80;3.50;;;;;;;;;;4896896;29;20466;-86
2023/07/19 11:47:12;;;;;;;3.87;3.40;;;;;;;;;;4903009;29;20531;-84
2023/07/19 11:58:49;;;;;;;2.83;2.50;;;;;;;;;;4901372;29;20467;-83
2023/07/19 12:10:38;;;;;;;1.87;1.80;;;;;;;;;;4899684;29;20556;-80
2023/07/19 12:16:08;;;;;;;1.90;1.90;;;;;;;;;;4912124;29;20890;-80
2023/07/19 12:21:38;;;;;;;2.60;2.50;;;;;;;;;;4908111;29;20727;-83
2023/07/19 12:27:08;;;;;;;2.27;2.27;;;;;;;;;;4901157;29;20442;-83
2023/07/19 12:35:43;;;;;;;2.97;2.80;;;;;;;;;;4909341;29;20491;-82
2023/07/19 12:47:57;;;;;;;3.90;3.43;;;;;;;;;;4905996;29;20418;-82
2023/07/19 12:56:55;;;;;;;4.10;4.00;;;;;;;;;;4912210;29;20464;-83
2023/07/19 13:11:54;;;;;;;5.40;3.27;;;;;;;;;;4897701;29;20558;-84
2023/07/19 13:17:24;;;;;;;4.10;2.70;;;;;;;;;;4902540;29;21082;-83
2023/07/19 13:29:45;;;;;;;3.90;3.60;;;;;;;;;;4877812;29;20543;-80
2023/07/19 13:32:11;;;;;;;3.67;3.40;;;;;;;;;;4884846;29;21027;-81
2023/07/19 13:34:37;;;;;;;6.47;6.00;;;;;;;;;;4884668;29;20449;-81
2023/07/19 13:37:03;;;;;;;3.13;2.93;;;;;;;;;;4877058;29;20805;-79
2023/07/19 13:39:29;;;;;;;3.57;3.30;;;;;;;;;;4868063;29;20461;-79
2023/07/19 13:41:55;;;;;;;2.90;2.80;;;;;;;;;;4865268;29;20462;-81
2023/07/19 13:44:22;;;;;;;3.87;2.93;;;;;;;;;;4891591;29;21118;-83
2023/07/19 13:49:51;;;;;;;3.00;2.80;;;;;;;;;;4906090;29;20401;-85
2023/07/19 13:55:21;;;;;;;3.00;2.53;;;;;;;;;;4902893;29;20452;-85
2023/07/19 14:13:08;;;;;;;2.33;2.10;;;;;;;;;;4891613;29;20549;-82
2023/07/19 14:18:37;;;;;;;2.27;2.17;;;;;;;;;;4892855;29;20408;-84
2023/07/19 15:06:37;;;;;;;2.67;2.53;;;;;;;;;;4879787;29;20499;-87
2023/07/19 15:09:03;;;;;;;2.97;2.73;;;;;;;;;;4869724;29;20445;-87
2023/07/19 15:11:29;;;;;;;3.40;2.67;;;;;;;;;;4888700;29;20491;-89
2023/07/19 15:20:04;;;;;;;2.47;2.30;;;;;;;;;;4893902;29;20432;-88
2023/07/19 15:22:30;;;;;;;2.67;2.50;;;;;;;;;;4876158;29;20433;-87
2023/07/19 15:24:56;;;;;;;4.60;2.90;;;;;;;;;;4890739;29;20457;-86
2023/07/19 15:27:22;;;;;;;3.53;3.33;;;;;;;;;;4865440;29;20454;-88
2023/07/19 15:29:48;;;;;;;4.03;3.87;;;;;;;;;;4866499;29;20489;-89
2023/07/19 15:32:14;;;;;;;3.93;3.60;;;;;;;;;;4866833;29;20471;-86
2023/07/19 15:34:40;;;;;;;3.20;3.00;;;;;;;;;;4870607;29;20402;-88
2023/07/19 15:37:09;;;;;;;8.83;3.10;;;;;;;;;;4883578;29;20433;-85
2023/07/19 15:39:35;;;;;;;2.50;2.50;;;;;;;;;;4870221;29;20426;-86
2023/07/19 15:42:02;;;;;;;3.20;3.00;;;;;;;;;;4866970;29;20441;-88
2023/07/19 15:44:28;;;;;;;2.97;2.77;;;;;;;;;;4871683;29;20528;-86
2023/07/19 15:46:54;;;;;;;2.93;2.73;;;;;;;;;;4894241;29;20432;-86
2023/07/19 15:49:20;;;;;;;1.87;1.80;;;;;;;;;;4870253;29;20469;-85
2023/07/19 15:51:46;;;;;;;4.67;2.23;;;;;;;;;;4867913;29;20481;-86
2023/07/19 15:54:12;;;;;;;1.53;1.43;;;;;;;;;;4875678;29;20553;-87
2023/07/19 15:56:38;;;;;;;3.23;2.93;;;;;;;;;;4883392;29;20565;-83
2023/07/19 15:59:04;;;;;;;1.70;1.60;;;;;;;;;;4897592;29;20451;-85
2023/07/19 16:01:31;;;;;;;1.93;1.83;;;;;;;;;;4865166;29;20937;-87
2023/07/19 16:03:57;;;;;;;3.73;2.50;;;;;;;;;;4864919;29;20418;-86
2023/07/19 16:06:23;;;;;;;3.60;2.00;;;;;;;;;;4868064;29;20540;-87
2023/07/19 16:08:49;;;;;;;2.73;1.70;;;;;;;;;;4875085;29;20422;-85
2023/07/19 16:11:17;;;;;;;2.73;2.53;;;;;;;;;;4853312;29;20473;-86
2023/07/19 16:13:43;;;;;;;4.80;2.20;;;;;;;;;;4868217;29;20546;-87
2023/07/19 16:16:09;;;;;;;2.43;2.23;;;;;;;;;;4846876;29;20451;-89
2023/07/19 16:18:36;;;;;;;2.00;2.00;;;;;;;;;;4853110;29;20430;-87
2023/07/19 16:21:02;;;;;;;3.40;3.03;;;;;;;;;;4853087;29;20490;-87
2023/07/19 16:23:28;;;;;;;1.93;1.93;;;;;;;;;;4873129;29;20443;-85
2023/07/19 16:25:54;;;;;;;3.40;3.20;;;;;;;;;;4846919;29;20454;-87
2023/07/19 16:28:20;;;;;;;3.30;3.20;;;;;;;;;;4851320;29;20446;-87
2023/07/19 16:30:47;;;;;;;3.87;3.67;;;;;;;;;;4853310;29;20442;-88
2023/07/19 16:33:13;;;;;;;3.27;3.07;;;;;;;;;;4865471;29;20415;-86
2023/07/19 16:35:39;;;;;;;5.50;3.67;;;;;;;;;;4840643;29;20425;-85
2023/07/19 16:47:16;;;;;;;3.80;3.50;;;;;;;;;;4866134;29;20503;-85
2023/07/19 17:01:57;;;;;;;9.77;6.50;;;;;;;;;;4871062;29;20470;-90
2023/07/19 17:13:50;;;;;;;15.40;10.53;;;;;;;;;;4853389;29;20453;-87
2023/07/19 17:16:16;;;;;;;11.83;10.57;;;;;;;;;;4864179;29;20446;-88
2023/07/19 17:18:42;;;;;;;10.13;9.07;;;;;;;;;;4842626;29;20446;-86
2023/07/19 17:24:12;;;;;;;11.40;10.30;;;;;;;;;;4863324;29;20434;-87
2023/07/19 17:26:39;;;;;;;9.30;8.60;;;;;;;;;;4841043;29;20458;-87
2023/07/19 17:32:09;;;;;;;18.20;10.07;;;;;;;;;;4853804;29;20522;-87
2023/07/19 17:37:40;;;;;;;10.40;9.43;;;;;;;;;;4864673;29;20525;-88
2023/07/19 17:40:08;;;;;;;9.90;9.20;;;;;;;;;;4851676;29;20533;-87
2023/07/19 17:42:35;;;;;;;10.70;9.40;;;;;;;;;;4865887;29;20461;-86
2023/07/19 17:45:01;;;;;;;11.40;10.40;;;;;;;;;;4859719;29;20896;-87
2023/07/19 17:47:27;;;;;;;11.03;9.60;;;;;;;;;;4847416;29;20427;-86
2023/07/19 17:49:53;;;;;;;12.10;10.90;;;;;;;;;;4848771;29;20449;-86
2023/07/19 17:52:19;;;;;;;11.27;10.37;;;;;;;;;;4862100;29;20577;-87
2023/07/19 17:54:45;;;;;;;11.00;9.90;;;;;;;;;;4867592;29;20511;-87
2023/07/19 17:57:11;;;;;;;12.20;11.03;;;;;;;;;;4860818;29;20437;-88
2023/07/19 17:59:41;;;;;;;10.33;9.37;;;;;;;;;;4869498;29;20461;-89
2023/07/19 18:02:07;;;;;;;10.37;9.77;;;;;;;;;;4871054;29;20486;-86
2023/07/19 18:04:33;;;;;;;10.10;9.20;;;;;;;;;;4857574;29;20595;-88
2023/07/19 18:06:59;;;;;;;13.73;9.67;;;;;;;;;;4846386;29;21257;-88
2023/07/19 18:09:28;;;;;;;9.93;9.17;;;;;;;;;;4863708;29;20421;-89
2023/07/19 18:11:54;;;;;;;10.07;9.27;;;;;;;;;;4844498;29;20488;-88
2023/07/19 18:14:20;;;;;;;10.07;9.33;;;;;;;;;;4848312;29;20380;-90
2023/07/19 18:16:46;;;;;;;12.20;11.10;;;;;;;;;;4834967;29;20438;-90
2023/07/19 18:19:12;;;;;;;13.37;12.17;;;;;;;;;;4851156;29;20441;-90
2023/07/19 18:21:38;;;;;;;12.63;11.43;;;;;;;;;;4864220;29;20516;-90
2023/07/19 18:27:33;;;;;;;12.97;11.57;;;;;;;;;;4850450;29;20471;-91
2023/07/19 18:29:59;;;;;;;13.47;11.20;;;;;;;;;;4853211;29;20998;-90
2023/07/19 18:32:25;;;;;;;16.03;11.27;;;;;;;;;;4855958;29;20466;-91
2023/07/19 18:34:51;;;;;;;11.70;10.70;;;;;;;;;;4868462;29;20442;-90
2023/07/19 18:37:17;;;;;;;13.83;12.57;;;;;;;;;;4873299;29;20430;-91
2023/07/19 18:39:44;;;;;;;12.00;11.00;;;;;;;;;;4856321;29;20450;-91
2023/07/19 18:42:10;;;;;;;11.57;10.70;;;;;;;;;;4858044;29;20429;-90
2023/07/19 18:44:37;;;;;;;11.27;10.57;;;;;;;;;;4852454;29;20952;-91
2023/07/19 18:47:11;;;;;;;12.63;11.40;;;;;;;;;;4861190;29;20474;-89
2023/07/19 18:49:40;;;;;;;11.70;10.80;;;;;;;;;;4860862;29;21080;-90
2023/07/19 18:52:06;;;;;;;11.83;10.90;;;;;;;;;;4854402;29;20470;-90
2023/07/19 18:54:34;;;;;;;11.00;10.00;;;;;;;;;;4870714;29;20454;-91
2023/07/19 18:57:00;;;;;;;10.17;9.57;;;;;;;;;;4850749;29;20426;-90
2023/07/19 18:59:26;;;;;;;11.23;10.20;;;;;;;;;;4870350;29;20450;-89
2023/07/19 19:01:52;;;;;;;11.20;10.40;;;;;;;;;;4858317;29;20653;-89
2023/07/19 19:04:18;;;;;;;12.90;11.63;;;;;;;;;;4855644;29;20540;-90
2023/07/19 19:06:44;;;;;;;13.60;12.50;;;;;;;;;;4857013;29;20557;-90
2023/07/19 19:09:10;;;;;;;11.90;10.80;;;;;;;;;;4854887;29;20705;-87